Time;durP1;ratioP1;P1;durP2;ratioP2;P2;SDS_P1;SDS_P2;PMS_P1;PMS_P2;Temp;Humidity;BMP_temperature;BMP_pressure;BME280_temperature;BME280_humidity;BME280_pressure;Samples;Min_cycle;Max_cycle;Signal;HPM_P1;HPM_P2
2022/06/28 00:00:29;;;;;;;8.27;2.00;;;16.00;99.90;;;;;;4980942;28;25087;-72
2022/06/28 00:02:55;;;;;;;7.97;1.70;;;16.00;99.90;;;;;;4972935;28;25131;-73
2022/06/28 00:05:21;;;;;;;9.85;1.60;;;16.00;99.90;;;;;;4985343;28;25062;-73
2022/06/28 00:07:47;;;;;;;3.70;1.55;;;15.90;99.90;;;;;;4989832;28;25161;-73
2022/06/28 00:10:14;;;;;;;7.53;1.65;;;15.90;99.90;;;;;;4975874;28;25071;-73
2022/06/28 00:12:40;;;;;;;8.20;1.50;;;16.00;99.90;;;;;;4977893;28;25144;-72
2022/06/28 00:17:52;;;;;;;6.40;1.42;;;16.00;99.90;;;;;;4984851;28;25073;-73
2022/06/28 00:20:18;;;;;;;5.65;1.17;;;15.90;99.90;;;;;;4979190;28;25077;-73
2022/06/28 00:22:44;;;;;;;6.10;1.30;;;15.90;99.90;;;;;;4983695;28;25062;-74
2022/06/28 00:25:09;;;;;;;8.50;1.50;;;15.90;99.90;;;;;;4989579;28;25135;-74
2022/06/28 00:27:35;;;;;;;7.05;1.20;;;15.80;99.90;;;;;;4976663;28;25075;-72
2022/06/28 00:30:03;;;;;;;4.28;1.20;;;15.80;99.90;;;;;;4973244;28;25059;-72
2022/06/28 00:32:29;;;;;;;9.18;1.65;;;15.70;99.90;;;;;;4969214;28;25079;-74
2022/06/28 00:34:55;;;;;;;7.60;1.80;;;15.70;99.90;;;;;;4976678;28;25088;-74
2022/06/28 00:37:21;;;;;;;5.80;1.48;;;15.80;99.90;;;;;;4979324;28;25077;-73
2022/06/28 00:39:46;;;;;;;9.00;1.58;;;15.70;99.90;;;;;;4982468;28;25064;-74
2022/06/28 00:42:12;;;;;;;6.03;1.40;;;15.70;99.90;;;;;;4977985;28;25136;-73
2022/06/28 00:44:38;;;;;;;7.28;1.55;;;15.70;99.90;;;;;;4972568;28;25056;-72
2022/06/28 00:47:06;;;;;;;4.53;1.33;;;15.70;99.90;;;;;;4993676;28;25053;-73
2022/06/28 00:49:33;;;;;;;6.70;1.30;;;15.70;99.90;;;;;;4969788;28;25130;-73
2022/06/28 00:52:02;;;;;;;6.75;1.30;;;15.60;99.90;;;;;;4973711;28;25073;-74
2022/06/28 00:54:29;;;;;;;6.50;1.75;;;15.70;99.90;;;;;;4968333;28;25063;-74
2022/06/28 00:56:55;;;;;;;7.70;1.75;;;15.60;99.90;;;;;;4981986;28;25075;-73
2022/06/28 00:59:21;;;;;;;8.73;1.52;;;15.60;99.90;;;;;;4961855;28;25140;-71
2022/06/28 01:01:47;;;;;;;6.47;1.50;;;15.50;99.90;;;;;;4977459;28;25052;-73
2022/06/28 01:04:12;;;;;;;7.32;1.52;;;15.40;99.90;;;;;;4970775;28;25228;-73
2022/06/28 01:06:39;;;;;;;5.70;1.60;;;15.30;99.90;;;;;;4978519;28;25078;-73
2022/06/28 01:09:05;;;;;;;6.03;1.77;;;15.30;99.90;;;;;;4977540;28;25160;-73
2022/06/28 01:11:32;;;;;;;11.35;1.48;;;15.30;99.90;;;;;;4982316;28;25082;-72
2022/06/28 01:14:00;;;;;;;11.95;1.40;;;15.30;99.90;;;;;;4980018;28;25104;-74
2022/06/28 01:16:27;;;;;;;5.72;1.65;;;15.40;99.90;;;;;;4984735;28;25059;-73
2022/06/28 01:18:52;;;;;;;4.45;1.00;;;15.30;99.90;;;;;;4998970;28;25069;-73
2022/06/28 01:21:18;;;;;;;11.25;2.10;;;15.20;99.90;;;;;;4978079;28;25065;-73
2022/06/28 01:23:45;;;;;;;4.80;1.50;;;15.20;99.90;;;;;;4988588;28;25085;-74
2022/06/28 01:26:14;;;;;;;6.15;1.90;;;15.20;99.90;;;;;;4989471;28;25064;-74
2022/06/28 01:28:41;;;;;;;9.98;1.27;;;15.20;99.90;;;;;;4993651;28;25075;-73
2022/06/28 01:31:07;;;;;;;5.78;1.10;;;15.10;99.90;;;;;;4986040;28;25061;-72
2022/06/28 01:33:36;;;;;;;7.32;2.38;;;15.00;99.90;;;;;;4988595;28;25080;-73
2022/06/28 01:36:06;;;;;;;6.60;1.98;;;15.00;99.90;;;;;;4982616;28;25086;-73
2022/06/28 01:38:32;;;;;;;4.38;1.38;;;14.90;99.90;;;;;;4955898;28;25067;-73
2022/06/28 01:40:58;;;;;;;8.73;1.45;;;14.90;99.90;;;;;;4986379;28;25132;-72
2022/06/28 01:43:26;;;;;;;5.25;1.85;;;14.90;99.90;;;;;;4981259;28;25086;-73
2022/06/28 01:45:53;;;;;;;5.07;1.23;;;15.00;99.90;;;;;;4974773;28;25083;-72
2022/06/28 01:48:20;;;;;;;7.07;1.52;;;14.90;99.90;;;;;;4982991;28;25133;-72
2022/06/28 01:50:46;;;;;;;4.47;1.23;;;14.90;99.90;;;;;;4983792;28;25100;-72
2022/06/28 01:53:12;;;;;;;4.07;0.98;;;14.80;99.90;;;;;;4983382;28;25076;-71
2022/06/28 01:55:40;;;;;;;4.35;0.95;;;14.80;99.90;;;;;;4986528;28;25137;-72
2022/06/28 01:58:06;;;;;;;5.57;1.15;;;14.80;99.90;;;;;;4979909;28;25058;-72
2022/06/28 02:00:32;;;;;;;8.00;1.52;;;14.80;99.90;;;;;;4983376;28;25077;-73
2022/06/28 02:02:58;;;;;;;7.47;1.48;;;14.80;99.90;;;;;;4970333;28;25132;-72
2022/06/28 02:05:25;;;;;;;5.57;1.20;;;14.80;99.90;;;;;;4986937;28;25077;-72
2022/06/28 02:07:51;;;;;;;4.28;1.33;;;14.90;99.90;;;;;;4981359;28;25074;-74
2022/06/28 02:10:17;;;;;;;5.15;1.30;;;14.80;99.90;;;;;;4972304;28;25065;-73
2022/06/28 02:12:43;;;;;;;2.88;1.00;;;14.70;99.90;;;;;;4978554;28;25087;-72
2022/06/28 02:15:09;;;;;;;7.18;1.30;;;14.70;99.90;;;;;;4979090;28;25093;-75
2022/06/28 02:17:35;;;;;;;5.72;1.30;;;14.70;99.90;;;;;;4981933;28;25148;-72
2022/06/28 02:20:01;;;;;;;5.85;1.77;;;14.70;99.90;;;;;;4982937;28;25088;-71
2022/06/28 02:22:27;;;;;;;8.88;1.60;;;14.70;99.90;;;;;;4992090;28;25097;-72
2022/06/28 02:24:53;;;;;;;8.80;1.65;;;14.60;99.90;;;;;;4994654;28;25056;-73
2022/06/28 02:27:19;;;;;;;5.07;1.33;;;14.60;99.90;;;;;;4985488;28;25061;-73
2022/06/28 02:29:45;;;;;;;8.05;1.63;;;14.60;99.90;;;;;;4995794;28;25155;-73
2022/06/28 02:32:11;;;;;;;4.15;1.38;;;14.50;99.90;;;;;;4982872;28;25072;-72
2022/06/28 02:40:21;;;;;;;4.88;1.90;;;14.40;99.90;;;;;;4990382;28;25162;-74
2022/06/28 02:42:57;;;;;;;7.75;1.80;;;14.40;99.90;;;;;;4988329;28;25067;-70
2022/06/28 02:45:26;;;;;;;9.98;2.38;;;14.30;99.90;;;;;;4987970;28;25044;-73
2022/06/28 02:47:52;;;;;;;8.50;1.70;;;14.30;99.90;;;;;;4995630;28;25050;-72
2022/06/28 02:50:18;;;;;;;7.93;1.77;;;14.30;99.90;;;;;;4979740;28;25066;-72
2022/06/28 02:52:43;;;;;;;8.73;1.30;;;14.30;99.90;;;;;;4972109;28;25108;-72
2022/06/28 02:55:09;;;;;;;8.13;2.13;;;14.30;99.90;;;;;;4973781;28;25086;-71
2022/06/28 02:57:36;;;;;;;6.20;1.55;;;14.30;99.90;;;;;;4978613;28;25058;-70
2022/06/28 03:00:07;;;;;;;8.10;1.92;;;14.30;99.90;;;;;;4988903;28;25067;-71
2022/06/28 03:02:35;;;;;;;7.10;1.90;;;14.30;99.90;;;;;;4973019;28;25072;-71
2022/06/28 03:05:09;;;;;;;8.35;2.00;;;14.20;99.90;;;;;;4997709;28;25078;-72
2022/06/28 03:07:36;;;;;;;18.02;3.17;;;14.30;99.90;;;;;;4976546;28;25070;-71
2022/06/28 03:10:02;;;;;;;9.90;1.95;;;14.40;99.90;;;;;;4989240;28;25082;-70
2022/06/28 03:12:28;;;;;;;8.55;1.65;;;14.30;99.90;;;;;;4981298;28;25089;-71
2022/06/28 03:14:53;;;;;;;14.43;2.35;;;14.30;99.90;;;;;;4975898;28;25117;-70
2022/06/28 03:17:19;;;;;;;13.18;2.20;;;14.30;99.90;;;;;;4987289;28;25130;-72
2022/06/28 03:19:45;;;;;;;12.65;2.88;;;14.30;99.90;;;;;;4991432;28;25080;-71
2022/06/28 03:22:11;;;;;;;11.85;2.03;;;14.40;99.90;;;;;;4998977;28;25056;-73
2022/06/28 03:24:36;;;;;;;12.82;2.75;;;14.40;99.90;;;;;;4986472;28;25063;-72
2022/06/28 03:27:02;;;;;;;11.40;2.40;;;14.40;99.90;;;;;;4977605;28;25080;-71
2022/06/28 03:29:28;;;;;;;12.50;2.85;;;14.40;99.90;;;;;;4977763;28;25085;-71
2022/06/28 03:31:53;;;;;;;9.60;2.65;;;14.30;99.90;;;;;;4989165;28;25076;-73
2022/06/28 03:34:22;;;;;;;11.70;2.22;;;14.30;99.90;;;;;;4977860;28;25088;-72
2022/06/28 03:36:47;;;;;;;9.70;2.03;;;14.30;99.90;;;;;;4973587;28;25112;-72
2022/06/28 03:39:14;;;;;;;14.75;2.60;;;14.30;99.90;;;;;;4971491;28;25069;-72
2022/06/28 03:41:40;;;;;;;13.38;3.05;;;14.20;99.90;;;;;;4971624;28;25059;-70
2022/06/28 03:44:05;;;;;;;8.93;2.42;;;14.30;99.90;;;;;;4971081;28;25049;-72
2022/06/28 03:46:31;;;;;;;11.77;2.15;;;14.30;99.90;;;;;;4968268;28;25084;-70
2022/06/28 03:48:57;;;;;;;12.48;2.55;;;14.20;99.90;;;;;;4970010;28;25159;-73
2022/06/28 03:51:23;;;;;;;11.45;2.50;;;14.20;99.90;;;;;;4972393;28;25074;-73
2022/06/28 03:53:48;;;;;;;6.72;2.40;;;14.30;99.90;;;;;;4972182;28;25066;-70
2022/06/28 03:56:14;;;;;;;10.65;2.63;;;14.30;99.90;;;;;;4982701;28;25068;-70
2022/06/28 03:58:40;;;;;;;16.98;3.58;;;14.40;99.90;;;;;;4971660;28;25115;-71
2022/06/28 04:01:05;;;;;;;9.48;2.58;;;14.30;99.90;;;;;;4974330;28;25084;-71
2022/06/28 04:03:32;;;;;;;9.15;2.90;;;14.40;99.90;;;;;;4971740;28;25158;-71
2022/06/28 04:05:57;;;;;;;8.30;2.63;;;14.40;99.90;;;;;;4965714;28;25161;-71
2022/06/28 04:08:23;;;;;;;15.13;2.83;;;14.40;99.90;;;;;;4971400;28;25093;-71
2022/06/28 04:11:13;;;;;;;13.00;3.40;;;14.40;99.90;;;;;;4994448;28;25111;-73
2022/06/28 04:13:35;;;;;;;11.60;2.83;;;14.40;99.90;;;;;;4973550;28;25055;-71
2022/06/28 04:16:00;;;;;;;12.70;3.60;;;14.40;99.90;;;;;;4986667;28;25138;-72
2022/06/28 04:18:26;;;;;;;10.82;2.67;;;14.40;99.90;;;;;;4964329;28;25061;-72
2022/06/28 04:20:52;;;;;;;19.38;4.50;;;14.40;99.90;;;;;;4967530;28;25146;-71
2022/06/28 04:23:17;;;;;;;19.80;4.20;;;14.40;99.90;;;;;;4978297;28;25105;-70
2022/06/28 04:25:43;;;;;;;15.95;3.65;;;14.40;99.90;;;;;;4983226;28;25066;-71
2022/06/28 04:28:08;;;;;;;9.07;3.38;;;14.40;99.90;;;;;;4989009;28;25111;-73
2022/06/28 04:30:34;;;;;;;14.93;3.40;;;14.40;99.90;;;;;;4974711;28;25041;-71
2022/06/28 04:33:00;;;;;;;17.95;4.10;;;14.30;99.90;;;;;;4985544;28;25068;-71
2022/06/28 04:35:25;;;;;;;15.48;3.63;;;14.30;99.90;;;;;;4971942;28;25188;-71
2022/06/28 04:37:51;;;;;;;14.02;4.70;;;14.40;99.90;;;;;;4999494;28;25109;-72
2022/06/28 04:40:17;;;;;;;15.52;4.38;;;14.40;99.90;;;;;;4982529;28;25059;-71
2022/06/28 04:42:42;;;;;;;24.85;4.85;;;14.40;99.90;;;;;;4981673;28;25155;-70
2022/06/28 04:45:08;;;;;;;11.10;4.38;;;14.40;99.90;;;;;;4978538;28;25114;-71
2022/06/28 04:47:34;;;;;;;17.77;4.50;;;14.50;99.90;;;;;;4968970;28;25057;-70
2022/06/28 04:49:59;;;;;;;14.23;3.65;;;14.50;99.90;;;;;;4997128;28;25063;-69
2022/06/28 04:52:25;;;;;;;17.38;5.13;;;14.60;99.90;;;;;;4983788;28;25094;-72
2022/06/28 04:54:51;;;;;;;13.40;4.32;;;14.60;99.90;;;;;;4970030;28;25102;-70
2022/06/28 04:57:16;;;;;;;16.73;4.10;;;14.60;99.90;;;;;;4969883;28;25142;-70
2022/06/28 04:59:42;;;;;;;19.52;4.63;;;14.70;99.90;;;;;;4972807;28;25134;-71
2022/06/28 05:02:07;;;;;;;19.17;4.47;;;14.80;99.90;;;;;;4961570;28;25132;-72
2022/06/28 05:04:33;;;;;;;21.98;4.38;;;14.80;99.90;;;;;;4965954;28;25067;-71
2022/06/28 05:06:58;;;;;;;20.08;4.43;;;14.80;99.90;;;;;;4978350;28;25142;-71
2022/06/28 05:09:24;;;;;;;23.27;5.05;;;14.80;99.90;;;;;;4961798;28;25171;-71
2022/06/28 05:11:50;;;;;;;24.70;5.05;;;15.00;99.90;;;;;;4962596;28;25092;-69
2022/06/28 05:14:15;;;;;;;25.77;5.03;;;15.00;99.90;;;;;;4958282;28;25074;-70
2022/06/28 05:16:41;;;;;;;16.02;4.80;;;15.10;99.90;;;;;;4956043;28;25056;-71
2022/06/28 05:19:07;;;;;;;15.35;4.72;;;15.20;99.90;;;;;;4965921;28;25062;-70
2022/06/28 05:21:32;;;;;;;19.38;4.63;;;15.20;99.90;;;;;;4965650;28;25133;-70
2022/06/28 05:23:58;;;;;;;18.05;4.65;;;15.10;99.90;;;;;;4967419;28;25066;-71
2022/06/28 05:26:25;;;;;;;16.25;4.00;;;15.20;99.90;;;;;;4967407;28;25125;-70
2022/06/28 05:28:51;;;;;;;12.90;5.13;;;15.20;99.90;;;;;;4970433;28;25069;-72
2022/06/28 05:31:16;;;;;;;18.55;4.82;;;15.40;99.90;;;;;;4979454;28;25070;-71
2022/06/28 05:33:42;;;;;;;20.08;4.60;;;15.40;99.90;;;;;;4973656;28;25142;-70
2022/06/28 05:36:07;;;;;;;16.58;4.82;;;15.40;99.90;;;;;;4967532;28;25077;-71
2022/06/28 05:38:33;;;;;;;18.30;4.40;;;15.50;99.90;;;;;;4971952;28;25074;-71
2022/06/28 05:40:59;;;;;;;24.73;4.93;;;15.50;99.90;;;;;;4964146;28;25103;-71
2022/06/28 05:43:24;;;;;;;14.50;4.30;;;15.50;99.90;;;;;;4970028;28;25091;-72
2022/06/28 05:45:50;;;;;;;16.15;4.32;;;15.50;99.90;;;;;;4971444;28;25066;-73
2022/06/28 05:48:16;;;;;;;20.02;4.38;;;15.50;99.90;;;;;;4966819;28;25144;-72
2022/06/28 05:50:41;;;;;;;22.63;4.78;;;15.60;99.90;;;;;;4970471;28;25096;-71
2022/06/28 05:53:07;;;;;;;17.98;4.57;;;15.60;99.90;;;;;;4966521;28;25056;-72
2022/06/28 05:55:33;;;;;;;18.35;4.68;;;15.70;99.90;;;;;;4969629;28;25051;-70
2022/06/28 05:57:58;;;;;;;22.23;5.10;;;15.80;99.90;;;;;;4972530;28;25076;-70
2022/06/28 06:00:24;;;;;;;16.08;4.82;;;16.10;99.90;;;;;;4974513;28;25058;-69
2022/06/28 06:02:50;;;;;;;16.75;4.47;;;16.10;99.90;;;;;;4964871;28;25128;-71
2022/06/28 06:05:16;;;;;;;17.15;3.88;;;16.00;99.90;;;;;;4965401;28;25101;-75
2022/06/28 06:07:42;;;;;;;20.25;4.82;;;16.20;99.90;;;;;;4963020;28;25052;-72
2022/06/28 06:10:09;;;;;;;18.00;4.50;;;16.50;99.90;;;;;;4954489;28;25114;-71
2022/06/28 06:12:34;;;;;;;20.30;5.50;;;16.70;99.90;;;;;;4963885;28;25114;-70
2022/06/28 06:15:00;;;;;;;19.77;5.43;;;16.90;99.90;;;;;;4970505;28;25052;-72
2022/06/28 06:17:26;;;;;;;22.20;4.63;;;17.00;99.90;;;;;;4971162;28;25109;-70
2022/06/28 06:19:51;;;;;;;23.48;4.35;;;17.10;99.90;;;;;;4974804;28;25151;-71
2022/06/28 06:22:17;;;;;;;19.75;4.78;;;17.20;99.90;;;;;;4969727;28;25070;-71
2022/06/28 06:24:43;;;;;;;15.20;4.00;;;17.40;99.90;;;;;;4969886;28;25084;-71
2022/06/28 06:27:08;;;;;;;18.05;5.43;;;17.70;99.90;;;;;;4967040;28;25103;-72
2022/06/28 06:29:35;;;;;;;19.80;4.30;;;17.70;99.90;;;;;;4966976;28;25108;-71
2022/06/28 06:32:01;;;;;;;21.30;5.10;;;17.70;99.90;;;;;;4967189;28;25124;-71
2022/06/28 06:34:27;;;;;;;13.48;4.53;;;17.80;99.90;;;;;;4959769;28;25077;-71
2022/06/28 06:36:53;;;;;;;17.35;4.10;;;17.80;99.90;;;;;;4969062;28;25058;-71
2022/06/28 06:39:18;;;;;;;19.13;4.70;;;18.00;99.90;;;;;;4971292;28;25075;-71
2022/06/28 06:41:45;;;;;;;16.48;4.55;;;18.10;99.90;;;;;;4973139;28;25056;-72
2022/06/28 06:44:11;;;;;;;22.60;4.55;;;18.10;99.90;;;;;;4976333;28;25105;-71
2022/06/28 06:46:36;;;;;;;13.68;4.15;;;18.00;99.90;;;;;;4980352;28;25146;-73
2022/06/28 06:49:03;;;;;;;19.40;4.65;;;18.20;99.90;;;;;;4976439;28;25066;-74
2022/06/28 06:51:30;;;;;;;18.80;4.22;;;18.30;99.90;;;;;;5001525;28;25061;-72
2022/06/28 06:53:56;;;;;;;17.35;4.28;;;18.60;99.90;;;;;;5005925;28;25069;-73
2022/06/28 06:56:22;;;;;;;18.73;4.78;;;18.50;99.90;;;;;;4970751;28;25107;-75
2022/06/28 06:58:48;;;;;;;22.20;4.47;;;18.60;99.90;;;;;;4978203;28;25170;-74
2022/06/28 07:01:15;;;;;;;19.33;4.30;;;18.80;99.90;;;;;;4970236;28;25057;-73
2022/06/28 07:03:44;;;;;;;18.83;4.30;;;19.00;99.90;;;;;;4982707;28;25074;-74
2022/06/28 07:06:11;;;;;;;21.88;4.60;;;19.20;99.90;;;;;;4975157;28;25069;-72
2022/06/28 07:08:37;;;;;;;17.52;3.40;;;19.10;99.90;;;;;;4974787;28;25173;-72
2022/06/28 07:11:03;;;;;;;20.80;4.03;;;19.20;99.90;;;;;;4980565;28;25093;-77
2022/06/28 07:13:29;;;;;;;22.38;4.25;;;19.10;99.90;;;;;;4977600;28;25063;-75
2022/06/28 07:15:55;;;;;;;15.32;3.33;;;19.20;99.90;;;;;;4991468;28;25069;-72
2022/06/28 07:18:21;;;;;;;15.05;3.13;;;19.60;99.90;;;;;;4988437;28;25077;-74
2022/06/28 07:20:47;;;;;;;16.50;3.42;;;19.70;99.90;;;;;;4991721;28;25092;-73
2022/06/28 07:23:12;;;;;;;16.42;3.63;;;19.70;99.90;;;;;;4982581;28;25152;-72
2022/06/28 07:25:38;;;;;;;13.15;3.05;;;19.80;99.90;;;;;;4994278;28;25086;-72
2022/06/28 07:28:04;;;;;;;19.42;3.60;;;19.80;99.90;;;;;;4992170;28;25106;-74
2022/06/28 07:30:29;;;;;;;14.10;3.30;;;19.80;99.90;;;;;;4998082;28;25062;-72
2022/06/28 07:32:55;;;;;;;17.92;3.72;;;20.10;99.90;;;;;;4987842;28;25073;-75
2022/06/28 07:35:24;;;;;;;14.50;2.95;;;20.00;99.90;;;;;;4979498;28;25107;-74
2022/06/28 07:37:51;;;;;;;21.33;4.85;;;20.20;99.90;;;;;;4988456;28;25070;-73
2022/06/28 07:40:16;;;;;;;13.85;3.60;;;20.10;99.90;;;;;;4973557;28;25091;-74
2022/06/28 07:42:42;;;;;;;15.25;2.65;;;19.90;99.90;;;;;;4981439;28;25119;-73
2022/06/28 07:45:08;;;;;;;15.52;3.42;;;19.80;99.90;;;;;;4973659;28;25149;-72
2022/06/28 07:47:33;;;;;;;20.92;4.68;;;19.90;99.90;;;;;;4982289;28;25053;-72
2022/06/28 07:52:43;;;;;;;13.02;4.05;;;19.90;99.90;;;;;;4974585;28;25096;-72
2022/06/28 07:55:10;;;;;;;18.48;3.97;;;19.70;99.90;;;;;;4974410;28;25097;-73
2022/06/28 07:57:37;;;;;;;13.70;2.80;;;19.40;99.90;;;;;;4975244;28;25068;-71
2022/06/28 08:00:04;;;;;;;13.02;3.08;;;19.30;99.90;;;;;;4983459;28;25082;-72
2022/06/28 08:02:30;;;;;;;19.27;4.30;;;19.40;99.90;;;;;;4978436;28;25155;-74
2022/06/28 08:04:56;;;;;;;15.35;3.45;;;19.60;99.90;;;;;;4998431;28;25103;-73
2022/06/28 08:07:21;;;;;;;17.75;3.22;;;19.90;99.90;;;;;;4980129;28;25124;-74
2022/06/28 08:09:47;;;;;;;13.38;3.13;;;20.10;99.90;;;;;;4985250;28;25062;-73
2022/06/28 08:12:13;;;;;;;13.85;3.42;;;20.50;99.90;;;;;;4983557;28;25077;-71
2022/06/28 08:14:39;;;;;;;13.35;3.05;;;20.60;99.90;;;;;;4983537;28;25077;-69
2022/06/28 08:17:05;;;;;;;14.77;3.95;;;20.90;99.90;;;;;;4964955;28;25126;-71
2022/06/28 08:19:32;;;;;;;18.45;3.80;;;21.00;99.90;;;;;;4980195;28;25100;-75
2022/06/28 08:21:57;;;;;;;13.38;2.83;;;21.00;99.90;;;;;;4985196;28;25138;-73
2022/06/28 08:24:23;;;;;;;13.40;2.70;;;20.70;99.90;;;;;;4978734;28;25093;-73
2022/06/28 08:26:48;;;;;;;11.35;2.88;;;20.40;99.90;;;;;;4996955;28;25122;-71
2022/06/28 08:29:16;;;;;;;11.18;2.33;;;20.70;99.90;;;;;;4983651;28;25130;-71
2022/06/28 08:31:42;;;;;;;10.23;2.50;;;20.90;99.90;;;;;;4997164;28;25049;-71
2022/06/28 08:34:08;;;;;;;10.05;2.20;;;20.90;99.90;;;;;;5004062;28;25070;-70
2022/06/28 08:36:34;;;;;;;10.77;2.50;;;20.90;99.90;;;;;;4984904;28;25080;-74
2022/06/28 08:39:01;;;;;;;10.98;3.17;;;21.30;99.90;;;;;;4979819;28;25057;-71
2022/06/28 08:41:30;;;;;;;14.68;2.88;;;21.60;99.90;;;;;;4983815;28;25085;-71
2022/06/28 08:43:56;;;;;;;11.52;2.80;;;21.40;99.90;;;;;;4985437;28;25077;-71
2022/06/28 08:46:24;;;;;;;10.98;2.75;;;21.60;99.90;;;;;;4985595;28;25059;-70
2022/06/28 08:48:53;;;;;;;10.70;2.60;;;21.80;97.40;;;;;;4984401;28;25146;-73
2022/06/28 08:51:20;;;;;;;18.98;3.28;;;21.60;98.40;;;;;;4982266;28;25098;-72
2022/06/28 08:53:49;;;;;;;12.50;2.75;;;21.60;99.90;;;;;;4997958;28;25113;-72
2022/06/28 08:56:15;;;;;;;14.95;3.53;;;21.80;99.90;;;;;;4992180;28;25073;-70
2022/06/28 08:58:43;;;;;;;11.00;2.55;;;21.80;96.20;;;;;;4995141;28;25104;-70
2022/06/28 09:01:12;;;;;;;8.95;2.47;;;21.40;94.50;;;;;;4991100;28;25060;-69
2022/06/28 09:03:39;;;;;;;14.18;2.95;;;21.50;97.20;;;;;;4992427;28;25093;-70
2022/06/28 09:06:06;;;;;;;13.02;2.70;;;21.70;93.80;;;;;;4988484;28;25051;-69
2022/06/28 09:08:32;;;;;;;7.07;2.35;;;21.40;94.40;;;;;;4983321;28;25065;-72
2022/06/28 09:10:58;;;;;;;9.82;2.97;;;21.30;92.50;;;;;;4982037;28;25072;-72
2022/06/28 09:13:24;;;;;;;13.63;2.63;;;21.40;91.40;;;;;;4994207;28;25060;-73
2022/06/28 09:16:01;;;;;;;9.35;1.90;;;21.80;93.90;;;;;;4982727;28;25071;-72
2022/06/28 09:18:35;;;;;;;6.03;2.03;;;21.80;90.30;;;;;;4982946;28;25149;-72
2022/06/28 09:21:06;;;;;;;8.80;2.45;;;21.80;90.50;;;;;;4986782;28;25063;-71
2022/06/28 09:23:35;;;;;;;7.63;2.08;;;22.20;91.40;;;;;;4979998;28;25092;-73
2022/06/28 09:26:11;;;;;;;11.25;2.03;;;21.80;79.90;;;;;;4990192;28;25054;-72
2022/06/28 09:28:48;;;;;;;6.05;1.80;;;22.00;88.80;;;;;;4989184;28;25047;-71
2022/06/28 09:31:13;;;;;;;7.88;1.98;;;22.40;77.70;;;;;;4972751;28;25073;-73
2022/06/28 09:33:39;;;;;;;7.80;2.35;;;22.40;86.10;;;;;;4980146;28;25076;-71
2022/06/28 09:36:05;;;;;;;8.38;1.80;;;22.80;89.20;;;;;;4978358;28;25052;-71
2022/06/28 09:38:32;;;;;;;5.35;1.60;;;22.50;63.40;;;;;;4983215;28;25085;-72
2022/06/28 09:41:01;;;;;;;8.85;1.75;;;22.40;53.60;;;;;;4972700;28;25072;-72
2022/06/28 09:43:33;;;;;;;5.40;2.03;;;22.10;55.20;;;;;;4974295;28;25061;-71
2022/06/28 09:46:03;;;;;;;5.72;1.55;;;22.10;60.70;;;;;;4969999;28;25121;-72
2022/06/28 09:48:36;;;;;;;5.07;1.80;;;22.30;74.70;;;;;;4975365;28;25095;-71
2022/06/28 09:51:02;;;;;;;9.10;2.30;;;22.20;77.10;;;;;;4975984;28;25052;-72
2022/06/28 09:53:29;;;;;;;7.55;1.98;;;22.90;81.70;;;;;;4972106;28;25124;-72
2022/06/28 09:55:58;;;;;;;5.97;1.90;;;23.40;73.80;;;;;;4974394;28;25054;-72
2022/06/28 09:58:24;;;;;;;7.25;1.90;;;23.50;62.10;;;;;;4989773;28;25087;-74
2022/06/28 10:00:50;;;;;;;5.00;1.50;;;23.40;57.50;;;;;;4993595;28;25131;-73
2022/06/28 10:03:16;;;;;;;8.30;1.70;;;23.40;56.50;;;;;;5004960;28;25138;-72
2022/06/28 10:05:42;;;;;;;6.85;1.35;;;23.10;56.30;;;;;;4999824;28;25049;-73
2022/06/28 10:08:08;;;;;;;5.85;1.75;;;23.40;57.10;;;;;;5001658;28;25051;-73
2022/06/28 10:10:37;;;;;;;6.45;1.30;;;23.80;58.60;;;;;;4994402;28;25090;-73
2022/06/28 10:16:19;;;;;;;5.55;2.10;;;23.90;43.20;;;;;;4979611;28;25110;-74
2022/06/28 10:18:47;;;;;;;7.80;1.40;;;24.30;27.00;;;;;;4984421;28;25088;-73
2022/06/28 10:21:13;;;;;;;5.65;1.60;;;24.30;18.50;;;;;;4975144;28;25091;-72
2022/06/28 10:23:43;;;;;;;8.48;1.50;;;24.20;27.30;;;;;;4979190;28;25060;-72
2022/06/28 10:26:11;;;;;;;7.03;1.40;;;23.90;19.30;;;;;;4977897;28;25107;-72
2022/06/28 10:28:41;;;;;;;7.32;1.83;;;23.70;23.30;;;;;;4975774;28;25127;-71
2022/06/28 10:31:25;;;;;;;9.48;2.20;;;23.40;15.90;;;;;;4976834;28;25087;-71
2022/06/28 10:33:53;;;;;;;5.53;1.38;;;23.30;14.90;;;;;;4979996;28;25110;-73
2022/06/28 10:36:22;;;;;;;5.35;1.30;;;23.10;16.50;;;;;;4982958;28;25094;-73
2022/06/28 10:39:09;;;;;;;2.83;1.10;;;23.70;29.80;;;;;;4992018;28;24860;-71
2022/06/28 10:41:40;;;;;;;5.13;1.58;;;23.70;23.20;;;;;;4974738;28;25053;-72
2022/06/28 10:44:27;;;;;;;3.35;1.23;;;23.80;11.70;;;;;;4971331;28;25067;-71
2022/06/28 10:47:11;;;;;;;5.20;1.27;;;24.00;9.90;;;;;;4985213;28;25066;-71
2022/06/28 10:49:45;;;;;;;4.25;1.10;;;23.70;3.60;;;;;;4987293;28;25108;-72
2022/06/28 10:52:14;;;;;;;3.35;1.27;;;23.80;18.60;;;;;;4982953;28;25097;-72
2022/06/28 10:55:05;;;;;;;10.73;1.48;;;23.80;20.40;;;;;;4988167;28;25066;-72
2022/06/28 10:57:30;;;;;;;5.20;1.95;;;24.20;25.50;;;;;;4974958;28;25149;-72
2022/06/28 11:00:00;;;;;;;4.47;1.52;;;24.50;7.40;;;;;;4982740;28;25062;-72
2022/06/28 11:02:50;;;;;;;7.97;1.88;;;24.80;14.20;;;;;;4997811;28;25068;-71
2022/06/28 11:05:18;;;;;;;5.40;1.77;;;24.40;3.70;;;;;;4979731;28;25139;-73
2022/06/28 11:08:05;;;;;;;4.78;1.58;;;24.30;13.60;;;;;;4986494;28;25064;-72
2022/06/28 11:10:30;;;;;;;12.80;2.30;;;24.30;13.50;;;;;;4986245;28;25172;-71
2022/06/28 11:13:18;;;;;;;6.10;1.30;;;24.30;4.60;;;;;;4979656;28;25154;-73
2022/06/28 11:15:44;;;;;;;4.97;1.60;;;24.20;8.60;;;;;;4988131;28;25087;-74
2022/06/28 11:18:18;;;;;;;6.43;1.42;;;24.20;1.00;;;;;;4983014;28;25099;-73
2022/06/28 11:20:44;;;;;;;4.32;2.00;;;24.30;11.10;;;;;;4982605;28;25049;-72
2022/06/28 11:23:23;;;;;;;3.90;1.73;;;24.60;9.40;;;;;;4976635;28;25066;-73
2022/06/28 11:28:51;;;;;;;5.22;1.70;;;24.80;12.50;;;;;;4983511;28;25078;-72
2022/06/28 11:31:16;;;;;;;4.72;1.52;;;24.90;12.10;;;;;;4978784;28;25108;-71
2022/06/28 11:33:42;;;;;;;9.98;2.05;;;25.20;2.10;;;;;;4982030;28;25095;-73
2022/06/28 11:36:07;;;;;;;5.32;1.80;;;24.80;9.30;;;;;;4979791;28;25064;-71
2022/06/28 11:38:33;;;;;;;5.97;2.20;;;24.90;3.60;;;;;;4979187;28;25045;-73
2022/06/28 11:40:58;;;;;;;6.90;1.85;;;25.00;7.50;;;;;;4979108;28;25120;-73
2022/06/28 11:43:27;;;;;;;4.38;2.13;;;25.00;9.20;;;;;;4978796;28;25123;-73
2022/06/28 11:45:54;;;;;;;5.82;1.67;;;25.40;4.30;;;;;;4986428;28;25059;-73
2022/06/28 11:48:23;;;;;;;6.75;2.03;;;25.20;13.30;;;;;;4983425;28;25147;-72
2022/06/28 11:50:56;;;;;;;5.78;1.80;;;25.30;20.30;;;;;;4982198;28;25265;-71
2022/06/28 11:53:23;;;;;;;7.60;2.53;;;25.30;19.60;;;;;;4980984;28;25075;-71
2022/06/28 11:55:51;;;;;;;8.95;1.80;;;25.70;8.20;;;;;;4980195;28;25133;-73
2022/06/28 11:58:25;;;;;;;6.57;2.03;;;25.60;18.20;;;;;;4979265;28;25067;-72
2022/06/28 12:01:27;;;;;;;9.93;2.30;;;25.40;4.60;;;;;;4974435;28;25072;-72
2022/06/28 12:03:59;;;;;;;4.95;1.58;;;24.90;21.90;;;;;;4955904;28;25209;-70
2022/06/28 12:06:29;;;;;;;8.77;2.33;;;25.00;20.00;;;;;;4964608;28;25124;-73
2022/06/28 12:09:00;;;;;;;5.40;1.60;;;25.30;27.80;;;;;;4967315;28;25149;-70
2022/06/28 12:11:29;;;;;;;5.20;1.80;;;25.30;19.30;;;;;;4973727;28;25106;-73
2022/06/28 12:14:16;;;;;;;9.05;1.90;;;25.20;18.10;;;;;;4981134;28;25071;-71
2022/06/28 12:16:45;;;;;;;6.90;1.77;;;24.90;22.70;;;;;;4967850;28;25066;-72
2022/06/28 12:19:17;;;;;;;7.47;1.85;;;24.80;7.00;;;;;;4980588;28;25065;-73
2022/06/28 12:22:12;;;;;;;4.90;2.10;;;24.80;12.20;;;;;;4998820;28;25045;-72
2022/06/28 12:24:45;;;;;;;8.82;2.28;;;24.50;18.30;;;;;;4994140;28;25077;-73
2022/06/28 12:27:21;;;;;;;5.50;1.70;;;24.40;16.40;;;;;;4991079;28;25048;-74
2022/06/28 12:29:51;;;;;;;6.00;2.00;;;24.80;26.30;;;;;;5002282;28;25137;-72
2022/06/28 12:32:18;;;;;;;6.93;1.73;;;25.20;19.30;;;;;;4994883;28;25146;-72
2022/06/28 12:34:43;;;;;;;6.68;1.77;;;25.30;24.90;;;;;;4979826;28;25070;-71
2022/06/28 12:37:10;;;;;;;6.85;1.90;;;25.40;22.00;;;;;;4972529;28;25080;-72
2022/06/28 12:39:36;;;;;;;9.77;2.35;;;25.70;30.00;;;;;;4974735;28;25109;-72
2022/06/28 12:42:02;;;;;;;7.63;2.35;;;25.40;12.70;;;;;;4978647;28;25088;-76
2022/06/28 12:44:28;;;;;;;4.72;1.58;;;25.20;23.20;;;;;;4984856;28;25118;-71
2022/06/28 12:46:54;;;;;;;6.72;1.95;;;24.90;26.10;;;;;;4987512;28;25061;-71
2022/06/28 12:49:20;;;;;;;4.85;1.42;;;25.30;21.60;;;;;;5000250;28;25145;-72
2022/06/28 12:51:46;;;;;;;3.78;1.45;;;25.50;26.10;;;;;;4977511;28;25082;-73
2022/06/28 12:54:12;;;;;;;5.63;1.90;;;26.00;27.50;;;;;;4978918;28;25161;-72
2022/06/28 12:56:38;;;;;;;9.20;2.30;;;26.00;16.10;;;;;;4981720;28;25083;-70
2022/06/28 12:59:05;;;;;;;6.63;2.38;;;25.80;5.40;;;;;;4983233;28;25068;-72
2022/06/28 13:01:30;;;;;;;9.40;2.25;;;25.10;9.10;;;;;;4977918;28;25134;-73